Astor — C6JR3 — position and weather

sailwx.info

Track history (hours):
 
Tides and Currents Weather Stations Pressure Air Temp Water Temp Dewpoint Dewpoint Depression Visibility Wind Speed Wind Dir Waves Ship Positions

Astor

Operator: Passat Ship Management Ltd

Last reported at 2017-Oct-20 20:26 UTC. Time now 2017-Oct-22 07:56 UTC.
Position N 37°43' W 029°58'.

Length 176 m; draft 6.2 m.

Type: Ship. MMSI: 308214000.

Date/timePositionNaut miles runAvg speedWind from/ knotsBaromVisibWave heightAir tempDewpointWater temp
2017-Oct-20 20:26N 37°43' W 029°58'715.9
2017-Oct-20 20:00N 37°47' W 029°51'816.3
2017-Oct-20 19:29N 37°52' W 029°43'816.1
2017-Oct-20 19:00N 37°57' W 029°35'816.0
2017-Oct-20 18:30N 38°01' W 029°26'815.4
2017-Oct-20 18:00N 38°06' W 029°18'815.5
2017-Oct-20 17:30N 38°10' W 029°11'815.6
2017-Oct-20 17:00N 38°15' W 029°03'55 4.9
2017-Oct-20 05:51N 38°57' W 028°16'917.4
2017-Oct-20 05:20N 39°04' W 028°10'617.0
2017-Oct-20 05:00N 39°09' W 028°06'815.1
2017-Oct-20 04:30N 39°12' W 027°57'815.4
2017-Oct-20 04:00N 39°16' W 027°49'815.5
2017-Oct-20 03:31N 39°20' W 027°40'714.8
2017-Oct-20 03:00N 39°24' W 027°32'  
2017-Oct-17 08:28N 48°43' W 006°00'816.8
2017-Oct-17 07:59N 48°50' W 005°53'915.9
2017-Oct-17 07:27N 48°55' W 005°43'1115.6
2017-Oct-17 06:46N 48°60' W 005°29'515.1
2017-Oct-17 06:27N 49°02' W 005°22'715.0
2017-Oct-17 06:01N 49°05' W 005°13'814.4
2017-Oct-17 05:28N 49°09' W 005°03'913.0
2017-Oct-17 04:45N 49°13' W 004°50'612.8
2017-Oct-17 04:16N 49°16' W 004°42'1211.5
2017-Oct-17 03:12N 49°23' W 004°26'610.7
2017-Oct-17 02:40N 49°26' W 004°19'3111.5
2017-Oct-16 23:58N 49°41' W 003°37'613.4
2017-Oct-16 23:30N 49°44' W 003°29'713.8
2017-Oct-16 23:00N 49°48' W 003°19'714.1
2017-Oct-16 22:30N 49°52' W 003°11'714.1
2017-Oct-16 22:00N 49°56' W 003°02'713.6
2017-Oct-16 21:30N 49°58' W 002°52'812.9
2017-Oct-16 20:54N 50°00' W 002°40'9212.8
2017-Oct-16 13:45N 49°37' W 000°22'416.6
2017-Oct-16 13:30N 49°34' W 000°18'815.4
2017-Oct-16 13:00N 49°31' W 000°07'612.7
2017-Oct-16 12:31N 49°30' E 000°02'3 5.7
2017-Oct-16 11:59N 49°29' E 000°07'0 0.0
2017-Oct-16 11:29N 49°29' E 000°07'0 0.0
2017-Oct-16 10:59N 49°29' E 000°07'0 0.0
2017-Oct-16 10:29N 49°29' E 000°07'0 0.0
2017-Oct-16 09:59N 49°29' E 000°07'0 0.0
2017-Oct-16 09:28N 49°29' E 000°07'0 0.0
2017-Oct-16 08:58N 49°29' E 000°07'0 0.0
2017-Oct-16 08:28N 49°29' E 000°07'0 0.0
2017-Oct-16 07:58N 49°29' E 000°07'0 0.0
2017-Oct-16 07:30N 49°29' E 000°07'0 0.0
2017-Oct-16 07:00N 49°29' E 000°07'0 0.0
2017-Oct-16 06:30N 49°29' E 000°07'0 0.0
2017-Oct-16 06:00N 49°29' E 000°07'0 0.0
2017-Oct-16 05:31N 49°29' E 000°07'2 4.5
2017-Oct-16 05:00N 49°30' E 000°03'510.3
2017-Oct-16 04:30N 49°31' W 000°04'510.0
2017-Oct-16 04:01N 49°36' W 000°07'612.4
2017-Oct-16 03:31N 49°42' W 000°08'610.8
2017-Oct-16 02:58N 49°43' W 000°17'4 9.2
2017-Oct-16 02:29N 49°43' W 000°10'4 8.8
2017-Oct-16 02:01N 49°47' W 000°11'1111.4
2017-Oct-16 01:05N 49°57' W 000°17'211.6
2017-Oct-16 00:55N 49°59' W 000°18'1612.2
2017-Oct-15 23:34N 50°15' W 000°10'112.2
2017-Oct-15 23:30N 50°15' W 000°09'611.7
2017-Oct-15 22:59N 50°21' W 000°06'611.6
2017-Oct-15 22:29N 50°27' W 000°05'612.1
2017-Oct-15 22:00N 50°30' E 000°03'612.6
2017-Oct-15 21:31N 50°31' E 000°12'612.3
2017-Oct-15 21:01N 50°33' E 000°21'611.9
2017-Oct-15 20:30N 50°35' E 000°30'611.3
2017-Oct-15 20:01N 50°37' E 000°38'611.2
2017-Oct-15 19:30N 50°40' E 000°46'511.0
2017-Oct-15 19:01N 50°43' E 000°53'510.8
2017-Oct-15 18:31N 50°46' E 000°60'611.0
2017-Oct-15 18:00N 50°49' E 001°07'611.6
2017-Oct-15 17:28N 50°53' E 001°16'613.0
2017-Oct-15 17:00N 50°57' E 001°22'816.1
2017-Oct-15 16:31N 51°04' E 001°29'918.0
2017-Oct-15 16:01N 51°11' E 001°37'815.7
2017-Oct-15 15:31N 51°19' E 001°37'611.4
2017-Oct-15 15:00N 51°24' E 001°32'1312.9
2017-Oct-15 14:00N 51°29' E 001°13'714.1
2017-Oct-15 13:30N 51°29' E 001°02'25 3.3
2017-Oct-15 05:56N 51°27' E 000°22'0 0.0
2017-Oct-15 05:27N 51°27' E 000°22'0 0.0
2017-Oct-14 22:23N 51°27' E 000°22'0 0.0
2017-Oct-14 21:57N 51°27' E 000°22'0 0.0
2017-Oct-14 21:12N 51°27' E 000°22'0 0.0
2017-Oct-14 20:51N 51°27' E 000°22'0 0.0
2017-Oct-14 20:29N 51°27' E 000°22'19 2.9
2017-Oct-14 14:03N 51°30' E 000°51'412.6
2017-Oct-14 13:44N 51°29' E 000°58'312.8
2017-Oct-14 13:29N 51°30' E 001°03'612.1
2017-Oct-14 13:00N 51°29' E 001°12'712.5
2017-Oct-14 12:29N 51°28' E 001°22'511.2
2017-Oct-14 12:00N 51°26' E 001°30'5 9.5
2017-Oct-14 11:30N 51°29' E 001°36'713.6
2017-Oct-14 11:00N 51°29' E 001°47'613.0
2017-Oct-14 10:30N 51°29' E 001°57'611.2
2017-Oct-14 10:00N 51°25' E 002°04'611.5
2017-Oct-14 09:31N 51°22' E 002°12'5 9.3
2017-Oct-14 09:00N 51°21' E 002°19'713.8
2017-Oct-14 08:30N 51°23' E 002°30'1811.8
2017-Oct-14 07:01N 51°23' E 002°58'211.5
2017-Oct-14 06:52N 51°24' E 003°01'410.9
2017-Oct-14 06:30N 51°24' E 003°07'611.6
2017-Oct-14 06:00N 51°25' E 003°16'611.6
2017-Oct-14 05:30N 51°25' E 003°26'611.7
2017-Oct-14 05:00N 51°26' E 003°35'4 7.9
2017-Oct-14 04:30N 51°27' E 003°41'0 0.0
2017-Oct-14 04:00N 51°27' E 003°41'0 0.0
2017-Oct-14 03:30N 51°27' E 003°41'0 0.0
2017-Oct-14 03:00N 51°27' E 003°41'0 0.0
2017-Oct-14 02:30N 51°27' E 003°41'0 0.0
2017-Oct-14 02:00N 51°27' E 003°41'0 0.0
2017-Oct-14 01:30N 51°27' E 003°41'0 0.0
2017-Oct-14 01:00N 51°27' E 003°41'0 0.0
2017-Oct-14 00:30N 51°27' E 003°41'0 0.0
2017-Oct-14 00:00N 51°27' E 003°41'0 0.0
2017-Oct-13 23:29N 51°27' E 003°41'0 0.0
2017-Oct-13 23:00N 51°27' E 003°41'0 0.0
2017-Oct-13 22:30N 51°27' E 003°41'0 0.0
2017-Oct-13 22:00N 51°27' E 003°41'0 0.0
2017-Oct-13 21:30N 51°27' E 003°41'0 0.0
2017-Oct-13 21:00N 51°27' E 003°41'0 0.0
2017-Oct-13 20:30N 51°27' E 003°41'0 0.0
2017-Oct-13 20:00N 51°27' E 003°41'0 0.0
2017-Oct-13 19:30N 51°27' E 003°41'0 0.0
2017-Oct-13 19:00N 51°27' E 003°41'0 0.0
2017-Oct-13 18:30N 51°27' E 003°41'0 0.0
2017-Oct-13 18:00N 51°27' E 003°41'0 0.0
2017-Oct-13 17:30N 51°27' E 003°41'0 0.0
2017-Oct-13 17:00N 51°27' E 003°41'0 0.0
2017-Oct-13 16:30N 51°27' E 003°41'0 0.0
2017-Oct-13 16:00N 51°27' E 003°41'0 0.0
2017-Oct-13 15:30N 51°27' E 003°41'0 0.0
2017-Oct-13 15:00N 51°27' E 003°41'0 0.0
2017-Oct-13 14:30N 51°27' E 003°41'0 0.0
2017-Oct-13 14:00N 51°27' E 003°41'0 0.0
2017-Oct-13 13:30N 51°27' E 003°41'0 0.0
2017-Oct-13 13:00N 51°27' E 003°41'0 0.0
2017-Oct-13 12:30N 51°27' E 003°41'0 0.0
2017-Oct-13 12:00N 51°27' E 003°41'0 0.0
2017-Oct-13 11:30N 51°27' E 003°41'0 0.0
2017-Oct-13 11:00N 51°27' E 003°41'0 0.0
2017-Oct-13 10:30N 51°27' E 003°41'0 0.0
2017-Oct-13 10:00N 51°27' E 003°41'0 0.0
2017-Oct-13 09:30N 51°27' E 003°41'0 0.0
2017-Oct-13 09:00N 51°27' E 003°41'0 0.0
2017-Oct-13 08:30N 51°27' E 003°41'0 0.0
2017-Oct-13 08:00N 51°27' E 003°41'0 0.0
2017-Oct-13 07:30N 51°27' E 003°41'0 0.0
2017-Oct-13 07:00N 51°27' E 003°41'0 0.0
2017-Oct-13 06:30N 51°27' E 003°41'0 0.0
2017-Oct-13 06:00N 51°27' E 003°41'0 0.0
2017-Oct-13 05:30N 51°27' E 003°41'0 0.0
2017-Oct-13 05:00N 51°27' E 003°41'0 0.0
2017-Oct-13 04:30N 51°27' E 003°41'0 0.0
2017-Oct-13 04:00N 51°27' E 003°41'0 0.0
2017-Oct-13 03:30N 51°27' E 003°41'0 0.0
2017-Oct-13 03:00N 51°27' E 003°41'0 0.0
2017-Oct-13 02:30N 51°27' E 003°41'0 0.0
2017-Oct-13 02:00N 51°27' E 003°41'0 0.0
2017-Oct-13 01:30N 51°27' E 003°41'0 0.0
2017-Oct-13 01:00N 51°27' E 003°41'0 0.0
2017-Oct-13 00:30N 51°27' E 003°41'0 0.0
2017-Oct-13 00:00N 51°27' E 003°41'0 0.0
2017-Oct-12 23:30N 51°27' E 003°41'0 0.0
2017-Oct-12 23:00N 51°27' E 003°41'0 0.0
2017-Oct-12 22:30N 51°27' E 003°41'0 0.0
2017-Oct-12 22:00N 51°27' E 003°41'0 0.0
2017-Oct-12 21:30N 51°27' E 003°41'0 0.0
2017-Oct-12 21:00N 51°27' E 003°41'0 0.0
2017-Oct-12 20:30N 51°27' E 003°41'0 0.0
2017-Oct-12 20:00N 51°27' E 003°41'0 0.0
2017-Oct-12 19:30N 51°27' E 003°41'0 0.0
2017-Oct-12 19:00N 51°27' E 003°41'0 0.0
2017-Oct-12 18:30N 51°27' E 003°41'0 0.0
2017-Oct-12 18:00N 51°27' E 003°41'0 0.0
2017-Oct-12 17:30N 51°27' E 003°41'0 0.0
2017-Oct-12 17:00N 51°27' E 003°41'0 0.0
2017-Oct-12 16:30N 51°27' E 003°41'0 0.0
2017-Oct-12 16:00N 51°27' E 003°41'0 0.0
2017-Oct-12 15:30N 51°27' E 003°41'0 0.0
2017-Oct-12 15:00N 51°27' E 003°41'0 0.0
2017-Oct-12 14:30N 51°27' E 003°41'0 0.0
2017-Oct-12 14:00N 51°27' E 003°41'0 0.0
2017-Oct-12 13:30N 51°27' E 003°41'0 0.0
2017-Oct-12 13:00N 51°27' E 003°41'0 0.0
2017-Oct-12 12:30N 51°27' E 003°41'0 0.0
2017-Oct-12 11:59N 51°27' E 003°41'0 0.0
2017-Oct-12 11:30N 51°27' E 003°41'0 0.0
2017-Oct-12 11:00N 51°27' E 003°41'0 0.0
2017-Oct-12 10:30N 51°27' E 003°41'0 0.0
2017-Oct-12 10:00N 51°27' E 003°41'0 0.0
2017-Oct-12 09:30N 51°27' E 003°41'0 0.3
2017-Oct-12 09:00N 51°27' E 003°41'0 0.4
2017-Oct-12 08:30N 51°28' E 003°40'0 0.1
2017-Oct-12 08:00N 51°28' E 003°40'0 0.1
2017-Oct-12 07:30N 51°28' E 003°40'0 0.1
2017-Oct-12 07:00N 51°28' E 003°40'0 0.1
2017-Oct-12 06:30N 51°28' E 003°40'0 0.1
2017-Oct-12 06:00N 51°28' E 003°40'0 0.1
2017-Oct-12 05:30N 51°28' E 003°40'0 0.0
2017-Oct-12 05:00N 51°28' E 003°40'0 0.1
2017-Oct-12 04:30N 51°28' E 003°40'0 0.2
2017-Oct-12 04:00N 51°27' E 003°40'0 0.2
2017-Oct-12 03:30N 51°28' E 003°40'0 0.2
2017-Oct-12 03:00N 51°28' E 003°40'0 0.1
2017-Oct-12 02:30N 51°28' E 003°40'0 0.2
2017-Oct-12 02:00N 51°27' E 003°40'0 0.1
2017-Oct-12 01:30N 51°28' E 003°40'0 0.1
2017-Oct-12 01:00N 51°28' E 003°40'0 0.0
2017-Oct-12 00:30N 51°28' E 003°40'0 0.1
2017-Oct-12 00:00N 51°28' E 003°40'0 0.1
2017-Oct-11 23:30N 51°28' E 003°40'0 0.2
2017-Oct-11 23:00N 51°28' E 003°40'0 0.2
2017-Oct-11 22:30N 51°28' E 003°40'0 0.1
2017-Oct-11 22:00N 51°28' E 003°40'0 0.2
2017-Oct-11 21:30N 51°27' E 003°41'0 0.2
2017-Oct-11 21:00N 51°28' E 003°40'0 0.1
2017-Oct-11 20:30N 51°28' E 003°40'0 0.0
2017-Oct-11 20:00N 51°28' E 003°40'0 0.0
2017-Oct-11 19:30N 51°28' E 003°40'0 0.2
2017-Oct-11 19:00N 51°27' E 003°40'0 0.3
2017-Oct-11 18:30N 51°28' E 003°40'0 0.1
2017-Oct-11 18:00N 51°28' E 003°40'0 0.0
2017-Oct-11 17:30N 51°28' E 003°40'0 0.2
2017-Oct-11 17:00N 51°28' E 003°41'0 0.0
2017-Oct-11 00:00N 51°28' E 003°40'0 0.3
2017-Oct-10 23:30N 51°27' E 003°40'0 0.1
2017-Oct-10 23:00N 51°27' E 003°40'0 0.1
2017-Oct-10 22:30N 51°28' E 003°40'0 0.1
2017-Oct-10 22:00N 51°28' E 003°40'0 0.2
2017-Oct-10 21:30N 51°27' E 003°40'0 0.1
2017-Oct-10 21:01N 51°28' E 003°40'0 0.2
2017-Oct-10 20:30N 51°27' E 003°40'  
Track history (hours):
 
Tides and Currents Weather Stations Pressure Air Temp Water Temp Dewpoint Dewpoint Depression Visibility Wind Speed Wind Dir Waves Ship Positions

Astor

Operator: Passat Ship Management Ltd

Last reported at 2017-Oct-20 20:26 UTC. Time now 2017-Oct-22 07:56 UTC.
Position N 37°43' W 029°58'.

Length 176 m; draft 6.2 m.

Type: Ship. MMSI: 308214000.

Date/timePositionNaut miles runAvg speedWind from/ knotsBaromVisibWave heightAir tempDewpointWater temp
2017-Oct-20 20:26N 37°43' W 029°58'715.9
2017-Oct-20 20:00N 37°47' W 029°51'816.3
2017-Oct-20 19:29N 37°52' W 029°43'816.1
2017-Oct-20 19:00N 37°57' W 029°35'816.0
2017-Oct-20 18:30N 38°01' W 029°26'815.4
2017-Oct-20 18:00N 38°06' W 029°18'815.5
2017-Oct-20 17:30N 38°10' W 029°11'815.6
2017-Oct-20 17:00N 38°15' W 029°03'55 4.9
2017-Oct-20 05:51N 38°57' W 028°16'917.4
2017-Oct-20 05:20N 39°04' W 028°10'617.0
2017-Oct-20 05:00N 39°09' W 028°06'815.1
2017-Oct-20 04:30N 39°12' W 027°57'815.4
2017-Oct-20 04:00N 39°16' W 027°49'815.5
2017-Oct-20 03:31N 39°20' W 027°40'714.8
2017-Oct-20 03:00N 39°24' W 027°32'  
2017-Oct-17 08:28N 48°43' W 006°00'816.8
2017-Oct-17 07:59N 48°50' W 005°53'915.9
2017-Oct-17 07:27N 48°55' W 005°43'1115.6
2017-Oct-17 06:46N 48°60' W 005°29'515.1
2017-Oct-17 06:27N 49°02' W 005°22'715.0
2017-Oct-17 06:01N 49°05' W 005°13'814.4
2017-Oct-17 05:28N 49°09' W 005°03'913.0
2017-Oct-17 04:45N 49°13' W 004°50'612.8
2017-Oct-17 04:16N 49°16' W 004°42'1211.5
2017-Oct-17 03:12N 49°23' W 004°26'610.7
2017-Oct-17 02:40N 49°26' W 004°19'3111.5
2017-Oct-16 23:58N 49°41' W 003°37'613.4
2017-Oct-16 23:30N 49°44' W 003°29'713.8
2017-Oct-16 23:00N 49°48' W 003°19'714.1
2017-Oct-16 22:30N 49°52' W 003°11'714.1
2017-Oct-16 22:00N 49°56' W 003°02'713.6
2017-Oct-16 21:30N 49°58' W 002°52'812.9
2017-Oct-16 20:54N 50°00' W 002°40'9212.8
2017-Oct-16 13:45N 49°37' W 000°22'416.6
2017-Oct-16 13:30N 49°34' W 000°18'815.4
2017-Oct-16 13:00N 49°31' W 000°07'612.7
2017-Oct-16 12:31N 49°30' E 000°02'3 5.7
2017-Oct-16 11:59N 49°29' E 000°07'0 0.0
2017-Oct-16 11:29N 49°29' E 000°07'0 0.0
2017-Oct-16 10:59N 49°29' E 000°07'0 0.0
2017-Oct-16 10:29N 49°29' E 000°07'0 0.0
2017-Oct-16 09:59N 49°29' E 000°07'0 0.0
2017-Oct-16 09:28N 49°29' E 000°07'0 0.0
2017-Oct-16 08:58N 49°29' E 000°07'0 0.0
2017-Oct-16 08:28N 49°29' E 000°07'0 0.0
2017-Oct-16 07:58N 49°29' E 000°07'0 0.0
2017-Oct-16 07:30N 49°29' E 000°07'0 0.0
2017-Oct-16 07:00N 49°29' E 000°07'0 0.0
2017-Oct-16 06:30N 49°29' E 000°07'0 0.0
2017-Oct-16 06:00N 49°29' E 000°07'0 0.0
2017-Oct-16 05:31N 49°29' E 000°07'2 4.5
2017-Oct-16 05:00N 49°30' E 000°03'510.3
2017-Oct-16 04:30N 49°31' W 000°04'510.0
2017-Oct-16 04:01N 49°36' W 000°07'612.4
2017-Oct-16 03:31N 49°42' W 000°08'610.8
2017-Oct-16 02:58N 49°43' W 000°17'4 9.2
2017-Oct-16 02:29N 49°43' W 000°10'4 8.8
2017-Oct-16 02:01N 49°47' W 000°11'1111.4
2017-Oct-16 01:05N 49°57' W 000°17'211.6
2017-Oct-16 00:55N 49°59' W 000°18'1612.2
2017-Oct-15 23:34N 50°15' W 000°10'112.2
2017-Oct-15 23:30N 50°15' W 000°09'611.7
2017-Oct-15 22:59N 50°21' W 000°06'611.6
2017-Oct-15 22:29N 50°27' W 000°05'612.1
2017-Oct-15 22:00N 50°30' E 000°03'612.6
2017-Oct-15 21:31N 50°31' E 000°12'612.3
2017-Oct-15 21:01N 50°33' E 000°21'611.9
2017-Oct-15 20:30N 50°35' E 000°30'611.3
2017-Oct-15 20:01N 50°37' E 000°38'611.2
2017-Oct-15 19:30N 50°40' E 000°46'511.0
2017-Oct-15 19:01N 50°43' E 000°53'510.8
2017-Oct-15 18:31N 50°46' E 000°60'611.0
2017-Oct-15 18:00N 50°49' E 001°07'611.6
2017-Oct-15 17:28N 50°53' E 001°16'613.0
2017-Oct-15 17:00N 50°57' E 001°22'816.1
2017-Oct-15 16:31N 51°04' E 001°29'918.0
2017-Oct-15 16:01N 51°11' E 001°37'815.7
2017-Oct-15 15:31N 51°19' E 001°37'611.4
2017-Oct-15 15:00N 51°24' E 001°32'1312.9
2017-Oct-15 14:00N 51°29' E 001°13'714.1
2017-Oct-15 13:30N 51°29' E 001°02'25 3.3
2017-Oct-15 05:56N 51°27' E 000°22'0 0.0
2017-Oct-15 05:27N 51°27' E 000°22'0 0.0
2017-Oct-14 22:23N 51°27' E 000°22'0 0.0
2017-Oct-14 21:57N 51°27' E 000°22'0 0.0
2017-Oct-14 21:12N 51°27' E 000°22'0 0.0
2017-Oct-14 20:51N 51°27' E 000°22'0 0.0
2017-Oct-14 20:29N 51°27' E 000°22'19 2.9
2017-Oct-14 14:03N 51°30' E 000°51'412.6
2017-Oct-14 13:44N 51°29' E 000°58'312.8
2017-Oct-14 13:29N 51°30' E 001°03'612.1
2017-Oct-14 13:00N 51°29' E 001°12'712.5
2017-Oct-14 12:29N 51°28' E 001°22'511.2
2017-Oct-14 12:00N 51°26' E 001°30'5 9.5
2017-Oct-14 11:30N 51°29' E 001°36'713.6
2017-Oct-14 11:00N 51°29' E 001°47'613.0
2017-Oct-14 10:30N 51°29' E 001°57'611.2
2017-Oct-14 10:00N 51°25' E 002°04'611.5
2017-Oct-14 09:31N 51°22' E 002°12'5 9.3
2017-Oct-14 09:00N 51°21' E 002°19'713.8
2017-Oct-14 08:30N 51°23' E 002°30'1811.8
2017-Oct-14 07:01N 51°23' E 002°58'211.5
2017-Oct-14 06:52N 51°24' E 003°01'410.9
2017-Oct-14 06:30N 51°24' E 003°07'611.6
2017-Oct-14 06:00N 51°25' E 003°16'611.6
2017-Oct-14 05:30N 51°25' E 003°26'611.7
2017-Oct-14 05:00N 51°26' E 003°35'4 7.9
2017-Oct-14 04:30N 51°27' E 003°41'0 0.0
2017-Oct-14 04:00N 51°27' E 003°41'0 0.0
2017-Oct-14 03:30N 51°27' E 003°41'0 0.0
2017-Oct-14 03:00N 51°27' E 003°41'0 0.0
2017-Oct-14 02:30N 51°27' E 003°41'0 0.0
2017-Oct-14 02:00N 51°27' E 003°41'0 0.0
2017-Oct-14 01:30N 51°27' E 003°41'0 0.0
2017-Oct-14 01:00N 51°27' E 003°41'0 0.0
2017-Oct-14 00:30N 51°27' E 003°41'0 0.0
2017-Oct-14 00:00N 51°27' E 003°41'0 0.0
2017-Oct-13 23:29N 51°27' E 003°41'0 0.0
2017-Oct-13 23:00N 51°27' E 003°41'0 0.0
2017-Oct-13 22:30N 51°27' E 003°41'0 0.0
2017-Oct-13 22:00N 51°27' E 003°41'0 0.0
2017-Oct-13 21:30N 51°27' E 003°41'0 0.0
2017-Oct-13 21:00N 51°27' E 003°41'0 0.0
2017-Oct-13 20:30N 51°27' E 003°41'0 0.0
2017-Oct-13 20:00N 51°27' E 003°41'0 0.0
2017-Oct-13 19:30N 51°27' E 003°41'0 0.0
2017-Oct-13 19:00N 51°27' E 003°41'0 0.0
2017-Oct-13 18:30N 51°27' E 003°41'0 0.0
2017-Oct-13 18:00N 51°27' E 003°41'0 0.0
2017-Oct-13 17:30N 51°27' E 003°41'0 0.0
2017-Oct-13 17:00N 51°27' E 003°41'0 0.0
2017-Oct-13 16:30N 51°27' E 003°41'0 0.0
2017-Oct-13 16:00N 51°27' E 003°41'0 0.0
2017-Oct-13 15:30N 51°27' E 003°41'0 0.0
2017-Oct-13 15:00N 51°27' E 003°41'0 0.0
2017-Oct-13 14:30N 51°27' E 003°41'0 0.0
2017-Oct-13 14:00N 51°27' E 003°41'0 0.0
2017-Oct-13 13:30N 51°27' E 003°41'0 0.0
2017-Oct-13 13:00N 51°27' E 003°41'0 0.0
2017-Oct-13 12:30N 51°27' E 003°41'0 0.0
2017-Oct-13 12:00N 51°27' E 003°41'0 0.0
2017-Oct-13 11:30N 51°27' E 003°41'0 0.0
2017-Oct-13 11:00N 51°27' E 003°41'0 0.0
2017-Oct-13 10:30N 51°27' E 003°41'0 0.0
2017-Oct-13 10:00N 51°27' E 003°41'0 0.0
2017-Oct-13 09:30N 51°27' E 003°41'0 0.0
2017-Oct-13 09:00N 51°27' E 003°41'0 0.0
2017-Oct-13 08:30N 51°27' E 003°41'0 0.0
2017-Oct-13 08:00N 51°27' E 003°41'0 0.0
2017-Oct-13 07:30N 51°27' E 003°41'0 0.0
2017-Oct-13 07:00N 51°27' E 003°41'0 0.0
2017-Oct-13 06:30N 51°27' E 003°41'0 0.0
2017-Oct-13 06:00N 51°27' E 003°41'0 0.0
2017-Oct-13 05:30N 51°27' E 003°41'0 0.0
2017-Oct-13 05:00N 51°27' E 003°41'0 0.0
2017-Oct-13 04:30N 51°27' E 003°41'0 0.0
2017-Oct-13 04:00N 51°27' E 003°41'0 0.0
2017-Oct-13 03:30N 51°27' E 003°41'0 0.0
2017-Oct-13 03:00N 51°27' E 003°41'0 0.0
2017-Oct-13 02:30N 51°27' E 003°41'0 0.0
2017-Oct-13 02:00N 51°27' E 003°41'0 0.0
2017-Oct-13 01:30N 51°27' E 003°41'0 0.0
2017-Oct-13 01:00N 51°27' E 003°41'0 0.0
2017-Oct-13 00:30N 51°27' E 003°41'0 0.0
2017-Oct-13 00:00N 51°27' E 003°41'0 0.0
2017-Oct-12 23:30N 51°27' E 003°41'0 0.0
2017-Oct-12 23:00N 51°27' E 003°41'0 0.0
2017-Oct-12 22:30N 51°27' E 003°41'0 0.0
2017-Oct-12 22:00N 51°27' E 003°41'0 0.0
2017-Oct-12 21:30N 51°27' E 003°41'0 0.0
2017-Oct-12 21:00N 51°27' E 003°41'0 0.0
2017-Oct-12 20:30N 51°27' E 003°41'0 0.0
2017-Oct-12 20:00N 51°27' E 003°41'0 0.0
2017-Oct-12 19:30N 51°27' E 003°41'0 0.0
2017-Oct-12 19:00N 51°27' E 003°41'0 0.0
2017-Oct-12 18:30N 51°27' E 003°41'0 0.0
2017-Oct-12 18:00N 51°27' E 003°41'0 0.0
2017-Oct-12 17:30N 51°27' E 003°41'0 0.0
2017-Oct-12 17:00N 51°27' E 003°41'0 0.0
2017-Oct-12 16:30N 51°27' E 003°41'0 0.0
2017-Oct-12 16:00N 51°27' E 003°41'0 0.0
2017-Oct-12 15:30N 51°27' E 003°41'0 0.0
2017-Oct-12 15:00N 51°27' E 003°41'0 0.0
2017-Oct-12 14:30N 51°27' E 003°41'0 0.0
2017-Oct-12 14:00N 51°27' E 003°41'0 0.0
2017-Oct-12 13:30N 51°27' E 003°41'0 0.0
2017-Oct-12 13:00N 51°27' E 003°41'0 0.0
2017-Oct-12 12:30N 51°27' E 003°41'0 0.0
2017-Oct-12 11:59N 51°27' E 003°41'0 0.0
2017-Oct-12 11:30N 51°27' E 003°41'0 0.0
2017-Oct-12 11:00N 51°27' E 003°41'0 0.0
2017-Oct-12 10:30N 51°27' E 003°41'0 0.0
2017-Oct-12 10:00N 51°27' E 003°41'0 0.0
2017-Oct-12 09:30N 51°27' E 003°41'0 0.3
2017-Oct-12 09:00N 51°27' E 003°41'0 0.4
2017-Oct-12 08:30N 51°28' E 003°40'0 0.1
2017-Oct-12 08:00N 51°28' E 003°40'0 0.1
2017-Oct-12 07:30N 51°28' E 003°40'0 0.1
2017-Oct-12 07:00N 51°28' E 003°40'0 0.1
2017-Oct-12 06:30N 51°28' E 003°40'0 0.1
2017-Oct-12 06:00N 51°28' E 003°40'0 0.1
2017-Oct-12 05:30N 51°28' E 003°40'0 0.0
2017-Oct-12 05:00N 51°28' E 003°40'0 0.1
2017-Oct-12 04:30N 51°28' E 003°40'0 0.2
2017-Oct-12 04:00N 51°27' E 003°40'0 0.2
2017-Oct-12 03:30N 51°28' E 003°40'0 0.2
2017-Oct-12 03:00N 51°28' E 003°40'0 0.1
2017-Oct-12 02:30N 51°28' E 003°40'0 0.2
2017-Oct-12 02:00N 51°27' E 003°40'0 0.1
2017-Oct-12 01:30N 51°28' E 003°40'0 0.1
2017-Oct-12 01:00N 51°28' E 003°40'0 0.0
2017-Oct-12 00:30N 51°28' E 003°40'0 0.1
2017-Oct-12 00:00N 51°28' E 003°40'0 0.1
2017-Oct-11 23:30N 51°28' E 003°40'0 0.2
2017-Oct-11 23:00N 51°28' E 003°40'0 0.2
2017-Oct-11 22:30N 51°28' E 003°40'0 0.1
2017-Oct-11 22:00N 51°28' E 003°40'0 0.2
2017-Oct-11 21:30N 51°27' E 003°41'0 0.2
2017-Oct-11 21:00N 51°28' E 003°40'0 0.1
2017-Oct-11 20:30N 51°28' E 003°40'0 0.0
2017-Oct-11 20:00N 51°28' E 003°40'0 0.0
2017-Oct-11 19:30N 51°28' E 003°40'0 0.2
2017-Oct-11 19:00N 51°27' E 003°40'0 0.3
2017-Oct-11 18:30N 51°28' E 003°40'0 0.1
2017-Oct-11 18:00N 51°28' E 003°40'0 0.0
2017-Oct-11 17:30N 51°28' E 003°40'0 0.2
2017-Oct-11 17:00N 51°28' E 003°41'0 0.0
2017-Oct-11 00:00N 51°28' E 003°40'0 0.3
2017-Oct-10 23:30N 51°27' E 003°40'0 0.1
2017-Oct-10 23:00N 51°27' E 003°40'0 0.1
2017-Oct-10 22:30N 51°28' E 003°40'0 0.1
2017-Oct-10 22:00N 51°28' E 003°40'0 0.2
2017-Oct-10 21:30N 51°27' E 003°40'0 0.1
2017-Oct-10 21:01N 51°28' E 003°40'0 0.2
2017-Oct-10 20:30N 51°27' E 003°40'  

Dump ship's entire track history